sensor_id;sensor_type;location;lat;lon;timestamp;P1;durP1;ratioP1;P2;durP2;ratioP2
2538;SDS011;1280;49.760;9.664;2022-08-19T00:01:23;29.60;;;22.13;;
2538;SDS011;1280;49.760;9.664;2022-08-19T00:03:56;28.70;;;20.30;;
2538;SDS011;1280;49.760;9.664;2022-08-19T00:06:24;29.80;;;21.27;;
2538;SDS011;1280;49.760;9.664;2022-08-19T00:08:54;27.70;;;20.43;;
2538;SDS011;1280;49.760;9.664;2022-08-19T00:11:23;28.20;;;20.60;;
2538;SDS011;1280;49.760;9.664;2022-08-19T00:13:54;29.20;;;20.87;;
2538;SDS011;1280;49.760;9.664;2022-08-19T00:16:23;29.53;;;20.93;;
2538;SDS011;1280;49.760;9.664;2022-08-19T00:18:52;28.60;;;20.80;;
2538;SDS011;1280;49.760;9.664;2022-08-19T00:21:21;24.20;;;19.17;;
2538;SDS011;1280;49.760;9.664;2022-08-19T00:23:51;26.70;;;21.20;;
2538;SDS011;1280;49.760;9.664;2022-08-19T00:26:19;27.20;;;20.00;;
2538;SDS011;1280;49.760;9.664;2022-08-19T00:28:47;26.80;;;20.20;;
2538;SDS011;1280;49.760;9.664;2022-08-19T00:31:15;27.87;;;21.70;;
2538;SDS011;1280;49.760;9.664;2022-08-19T00:33:43;27.70;;;20.60;;
2538;SDS011;1280;49.760;9.664;2022-08-19T00:36:11;28.77;;;21.57;;
2538;SDS011;1280;49.760;9.664;2022-08-19T00:38:39;22.30;;;18.00;;
2538;SDS011;1280;49.760;9.664;2022-08-19T00:41:12;26.77;;;19.63;;
2538;SDS011;1280;49.760;9.664;2022-08-19T00:43:42;26.87;;;19.67;;
2538;SDS011;1280;49.760;9.664;2022-08-19T00:46:10;22.83;;;17.87;;
2538;SDS011;1280;49.760;9.664;2022-08-19T00:48:38;27.00;;;20.50;;
2538;SDS011;1280;49.760;9.664;2022-08-19T00:51:05;23.30;;;19.10;;
2538;SDS011;1280;49.760;9.664;2022-08-19T00:53:33;24.80;;;19.60;;
2538;SDS011;1280;49.760;9.664;2022-08-19T00:56:02;26.33;;;19.57;;
2538;SDS011;1280;49.760;9.664;2022-08-19T00:58:34;24.50;;;19.53;;
2538;SDS011;1280;49.760;9.664;2022-08-19T01:01:03;24.83;;;19.53;;
2538;SDS011;1280;49.760;9.664;2022-08-19T01:03:31;26.50;;;20.67;;
2538;SDS011;1280;49.760;9.664;2022-08-19T01:06:20;24.73;;;19.40;;
2538;SDS011;1280;49.760;9.664;2022-08-19T01:08:48;24.80;;;19.60;;
2538;SDS011;1280;49.760;9.664;2022-08-19T01:11:16;24.73;;;19.47;;
2538;SDS011;1280;49.760;9.664;2022-08-19T01:13:45;24.23;;;18.90;;
2538;SDS011;1280;49.760;9.664;2022-08-19T01:16:15;26.03;;;19.30;;
2538;SDS011;1280;49.760;9.664;2022-08-19T01:18:46;25.43;;;19.73;;
2538;SDS011;1280;49.760;9.664;2022-08-19T01:21:15;26.73;;;19.60;;
2538;SDS011;1280;49.760;9.664;2022-08-19T01:23:49;26.37;;;20.30;;
2538;SDS011;1280;49.760;9.664;2022-08-19T01:26:18;26.03;;;20.00;;
2538;SDS011;1280;49.760;9.664;2022-08-19T01:28:49;27.30;;;20.77;;
2538;SDS011;1280;49.760;9.664;2022-08-19T01:31:24;28.03;;;18.77;;
2538;SDS011;1280;49.760;9.664;2022-08-19T01:33:58;22.77;;;17.60;;
2538;SDS011;1280;49.760;9.664;2022-08-19T01:36:29;27.30;;;19.63;;
2538;SDS011;1280;49.760;9.664;2022-08-19T01:39:00;24.07;;;18.87;;
2538;SDS011;1280;49.760;9.664;2022-08-19T01:41:30;24.50;;;19.17;;
2538;SDS011;1280;49.760;9.664;2022-08-19T01:43:58;21.63;;;17.00;;
2538;SDS011;1280;49.760;9.664;2022-08-19T01:46:44;26.33;;;19.00;;
2538;SDS011;1280;49.760;9.664;2022-08-19T01:49:14;25.03;;;18.67;;
2538;SDS011;1280;49.760;9.664;2022-08-19T01:51:43;23.20;;;17.77;;
2538;SDS011;1280;49.760;9.664;2022-08-19T01:54:13;27.00;;;18.93;;
2538;SDS011;1280;49.760;9.664;2022-08-19T01:56:53;25.83;;;19.33;;
2538;SDS011;1280;49.760;9.664;2022-08-19T01:59:30;27.40;;;18.50;;
2538;SDS011;1280;49.760;9.664;2022-08-19T02:01:59;22.90;;;18.47;;
2538;SDS011;1280;49.760;9.664;2022-08-19T02:04:27;21.93;;;17.57;;
2538;SDS011;1280;49.760;9.664;2022-08-19T02:06:57;23.13;;;18.10;;
2538;SDS011;1280;49.760;9.664;2022-08-19T02:09:26;21.53;;;17.30;;
2538;SDS011;1280;49.760;9.664;2022-08-19T02:11:54;24.23;;;18.63;;
2538;SDS011;1280;49.760;9.664;2022-08-19T02:14:22;25.13;;;19.17;;
2538;SDS011;1280;49.760;9.664;2022-08-19T02:16:50;22.07;;;18.00;;
2538;SDS011;1280;49.760;9.664;2022-08-19T02:19:18;24.10;;;18.50;;
2538;SDS011;1280;49.760;9.664;2022-08-19T02:21:46;23.03;;;18.10;;
2538;SDS011;1280;49.760;9.664;2022-08-19T02:24:13;24.67;;;18.80;;
2538;SDS011;1280;49.760;9.664;2022-08-19T02:26:43;28.20;;;19.07;;
2538;SDS011;1280;49.760;9.664;2022-08-19T02:29:11;23.63;;;18.17;;
2538;SDS011;1280;49.760;9.664;2022-08-19T02:31:38;25.63;;;18.80;;
2538;SDS011;1280;49.760;9.664;2022-08-19T02:34:06;27.03;;;19.10;;
2538;SDS011;1280;49.760;9.664;2022-08-19T02:36:35;24.17;;;18.80;;
2538;SDS011;1280;49.760;9.664;2022-08-19T02:39:07;26.20;;;19.20;;
2538;SDS011;1280;49.760;9.664;2022-08-19T02:41:34;24.37;;;19.30;;
2538;SDS011;1280;49.760;9.664;2022-08-19T02:44:04;28.07;;;20.40;;
2538;SDS011;1280;49.760;9.664;2022-08-19T02:46:52;28.13;;;19.43;;
2538;SDS011;1280;49.760;9.664;2022-08-19T02:49:21;26.17;;;19.70;;
2538;SDS011;1280;49.760;9.664;2022-08-19T02:51:49;23.83;;;19.13;;
2538;SDS011;1280;49.760;9.664;2022-08-19T02:54:17;27.00;;;19.50;;
2538;SDS011;1280;49.760;9.664;2022-08-19T02:56:45;24.63;;;18.50;;
2538;SDS011;1280;49.760;9.664;2022-08-19T02:59:14;27.23;;;20.77;;
2538;SDS011;1280;49.760;9.664;2022-08-19T03:01:45;26.50;;;19.37;;
2538;SDS011;1280;49.760;9.664;2022-08-19T03:04:14;25.47;;;19.90;;
2538;SDS011;1280;49.760;9.664;2022-08-19T03:06:43;26.77;;;21.33;;
2538;SDS011;1280;49.760;9.664;2022-08-19T03:09:13;25.40;;;19.83;;
2538;SDS011;1280;49.760;9.664;2022-08-19T03:11:41;25.90;;;18.90;;
2538;SDS011;1280;49.760;9.664;2022-08-19T03:14:10;26.90;;;19.20;;
2538;SDS011;1280;49.760;9.664;2022-08-19T03:16:42;27.70;;;21.20;;
2538;SDS011;1280;49.760;9.664;2022-08-19T03:19:12;25.70;;;20.37;;
2538;SDS011;1280;49.760;9.664;2022-08-19T03:21:42;27.13;;;20.93;;
2538;SDS011;1280;49.760;9.664;2022-08-19T03:24:11;26.33;;;20.20;;
2538;SDS011;1280;49.760;9.664;2022-08-19T03:26:41;29.53;;;20.20;;
2538;SDS011;1280;49.760;9.664;2022-08-19T03:29:11;26.80;;;20.27;;
2538;SDS011;1280;49.760;9.664;2022-08-19T03:31:41;24.30;;;18.60;;
2538;SDS011;1280;49.760;9.664;2022-08-19T03:34:18;27.10;;;20.03;;
2538;SDS011;1280;49.760;9.664;2022-08-19T03:36:48;28.47;;;20.70;;
2538;SDS011;1280;49.760;9.664;2022-08-19T03:39:16;25.33;;;19.60;;
2538;SDS011;1280;49.760;9.664;2022-08-19T03:41:45;27.17;;;19.40;;
2538;SDS011;1280;49.760;9.664;2022-08-19T03:44:35;29.70;;;20.50;;
2538;SDS011;1280;49.760;9.664;2022-08-19T03:47:05;28.10;;;20.53;;
2538;SDS011;1280;49.760;9.664;2022-08-19T03:49:33;28.77;;;20.83;;
2538;SDS011;1280;49.760;9.664;2022-08-19T03:52:02;26.63;;;20.10;;
2538;SDS011;1280;49.760;9.664;2022-08-19T03:54:34;28.13;;;20.40;;
2538;SDS011;1280;49.760;9.664;2022-08-19T03:57:04;27.50;;;19.87;;
2538;SDS011;1280;49.760;9.664;2022-08-19T03:59:33;25.00;;;18.70;;
2538;SDS011;1280;49.760;9.664;2022-08-19T04:02:07;25.17;;;18.73;;
2538;SDS011;1280;49.760;9.664;2022-08-19T04:04:39;30.70;;;19.83;;
2538;SDS011;1280;49.760;9.664;2022-08-19T04:07:09;26.30;;;20.00;;
2538;SDS011;1280;49.760;9.664;2022-08-19T04:09:39;27.30;;;19.60;;
2538;SDS011;1280;49.760;9.664;2022-08-19T04:12:07;27.00;;;19.53;;
2538;SDS011;1280;49.760;9.664;2022-08-19T04:14:36;27.23;;;20.53;;
2538;SDS011;1280;49.760;9.664;2022-08-19T04:17:05;26.17;;;19.53;;
2538;SDS011;1280;49.760;9.664;2022-08-19T04:19:34;25.73;;;19.47;;
2538;SDS011;1280;49.760;9.664;2022-08-19T04:22:03;26.57;;;18.40;;
2538;SDS011;1280;49.760;9.664;2022-08-19T04:24:35;27.00;;;19.57;;
2538;SDS011;1280;49.760;9.664;2022-08-19T04:27:07;27.33;;;21.40;;
2538;SDS011;1280;49.760;9.664;2022-08-19T04:32:29;25.60;;;19.10;;
2538;SDS011;1280;49.760;9.664;2022-08-19T04:34:59;27.30;;;19.80;;
2538;SDS011;1280;49.760;9.664;2022-08-19T04:37:44;27.80;;;20.20;;
2538;SDS011;1280;49.760;9.664;2022-08-19T04:40:12;26.40;;;18.20;;
2538;SDS011;1280;49.760;9.664;2022-08-19T04:42:58;25.23;;;18.90;;
2538;SDS011;1280;49.760;9.664;2022-08-19T04:45:27;24.83;;;18.67;;
2538;SDS011;1280;49.760;9.664;2022-08-19T04:48:05;24.20;;;18.97;;
2538;SDS011;1280;49.760;9.664;2022-08-19T04:50:54;27.00;;;20.80;;
2538;SDS011;1280;49.760;9.664;2022-08-19T04:53:24;28.90;;;19.70;;
2538;SDS011;1280;49.760;9.664;2022-08-19T04:55:55;24.53;;;17.40;;
2538;SDS011;1280;49.760;9.664;2022-08-19T04:58:23;26.77;;;19.27;;
2538;SDS011;1280;49.760;9.664;2022-08-19T05:00:53;21.23;;;16.80;;
2538;SDS011;1280;49.760;9.664;2022-08-19T05:03:22;24.87;;;19.03;;
2538;SDS011;1280;49.760;9.664;2022-08-19T05:05:57;24.17;;;18.83;;
2538;SDS011;1280;49.760;9.664;2022-08-19T05:08:24;23.90;;;18.30;;
2538;SDS011;1280;49.760;9.664;2022-08-19T05:10:56;25.17;;;18.30;;
2538;SDS011;1280;49.760;9.664;2022-08-19T05:13:24;23.90;;;18.10;;
2538;SDS011;1280;49.760;9.664;2022-08-19T05:15:53;22.60;;;17.10;;
2538;SDS011;1280;49.760;9.664;2022-08-19T05:18:22;23.07;;;16.90;;
2538;SDS011;1280;49.760;9.664;2022-08-19T05:21:09;22.60;;;17.10;;
2538;SDS011;1280;49.760;9.664;2022-08-19T05:23:57;24.40;;;17.20;;
2538;SDS011;1280;49.760;9.664;2022-08-19T05:26:25;21.60;;;15.83;;
2538;SDS011;1280;49.760;9.664;2022-08-19T05:28:54;21.83;;;16.77;;
2538;SDS011;1280;49.760;9.664;2022-08-19T05:31:22;21.50;;;17.07;;
2538;SDS011;1280;49.760;9.664;2022-08-19T05:33:50;26.30;;;19.13;;
2538;SDS011;1280;49.760;9.664;2022-08-19T05:36:20;24.17;;;18.00;;
2538;SDS011;1280;49.760;9.664;2022-08-19T05:38:48;24.37;;;18.23;;
2538;SDS011;1280;49.760;9.664;2022-08-19T05:41:16;26.90;;;18.30;;
2538;SDS011;1280;49.760;9.664;2022-08-19T05:43:44;23.10;;;17.60;;
2538;SDS011;1280;49.760;9.664;2022-08-19T05:46:15;26.20;;;18.87;;
2538;SDS011;1280;49.760;9.664;2022-08-19T05:48:53;25.70;;;18.20;;
2538;SDS011;1280;49.760;9.664;2022-08-19T05:51:24;24.10;;;18.23;;
2538;SDS011;1280;49.760;9.664;2022-08-19T05:53:54;26.53;;;20.20;;
2538;SDS011;1280;49.760;9.664;2022-08-19T05:56:22;26.20;;;19.30;;
2538;SDS011;1280;49.760;9.664;2022-08-19T05:58:51;26.73;;;19.70;;
2538;SDS011;1280;49.760;9.664;2022-08-19T06:01:20;30.47;;;19.60;;
2538;SDS011;1280;49.760;9.664;2022-08-19T06:03:48;25.60;;;19.20;;
2538;SDS011;1280;49.760;9.664;2022-08-19T06:06:16;26.90;;;20.37;;
2538;SDS011;1280;49.760;9.664;2022-08-19T06:08:46;29.27;;;19.67;;
2538;SDS011;1280;49.760;9.664;2022-08-19T06:11:17;23.97;;;18.20;;
2538;SDS011;1280;49.760;9.664;2022-08-19T06:13:48;24.60;;;19.00;;
2538;SDS011;1280;49.760;9.664;2022-08-19T06:16:25;25.53;;;19.53;;
2538;SDS011;1280;49.760;9.664;2022-08-19T06:18:55;30.80;;;20.10;;
2538;SDS011;1280;49.760;9.664;2022-08-19T06:21:25;26.37;;;20.20;;
2538;SDS011;1280;49.760;9.664;2022-08-19T06:23:56;27.03;;;18.93;;
2538;SDS011;1280;49.760;9.664;2022-08-19T06:26:24;25.50;;;19.30;;
2538;SDS011;1280;49.760;9.664;2022-08-19T06:28:53;27.53;;;18.40;;
2538;SDS011;1280;49.760;9.664;2022-08-19T06:31:22;25.10;;;18.83;;
2538;SDS011;1280;49.760;9.664;2022-08-19T06:33:52;24.80;;;19.43;;
2538;SDS011;1280;49.760;9.664;2022-08-19T06:36:20;23.20;;;17.70;;
2538;SDS011;1280;49.760;9.664;2022-08-19T06:38:57;25.70;;;17.90;;
2538;SDS011;1280;49.760;9.664;2022-08-19T06:41:25;23.10;;;17.17;;
2538;SDS011;1280;49.760;9.664;2022-08-19T06:43:54;21.77;;;17.00;;
2538;SDS011;1280;49.760;9.664;2022-08-19T06:46:23;23.43;;;17.17;;
2538;SDS011;1280;49.760;9.664;2022-08-19T06:48:51;23.43;;;17.13;;
2538;SDS011;1280;49.760;9.664;2022-08-19T06:51:20;23.37;;;17.27;;
2538;SDS011;1280;49.760;9.664;2022-08-19T06:53:50;21.00;;;17.03;;
2538;SDS011;1280;49.760;9.664;2022-08-19T06:56:23;25.20;;;18.97;;
2538;SDS011;1280;49.760;9.664;2022-08-19T06:58:57;21.57;;;18.00;;
2538;SDS011;1280;49.760;9.664;2022-08-19T07:01:25;19.73;;;16.30;;
2538;SDS011;1280;49.760;9.664;2022-08-19T07:03:53;20.93;;;15.63;;
2538;SDS011;1280;49.760;9.664;2022-08-19T07:06:23;20.70;;;16.17;;
2538;SDS011;1280;49.760;9.664;2022-08-19T07:09:10;20.90;;;16.40;;
2538;SDS011;1280;49.760;9.664;2022-08-19T07:11:45;24.43;;;18.07;;
2538;SDS011;1280;49.760;9.664;2022-08-19T07:14:14;20.73;;;15.60;;
2538;SDS011;1280;49.760;9.664;2022-08-19T07:16:45;19.83;;;16.70;;
2538;SDS011;1280;49.760;9.664;2022-08-19T07:19:15;22.10;;;17.73;;
2538;SDS011;1280;49.760;9.664;2022-08-19T07:21:46;21.37;;;16.40;;
2538;SDS011;1280;49.760;9.664;2022-08-19T07:24:16;24.77;;;17.80;;
2538;SDS011;1280;49.760;9.664;2022-08-19T07:26:45;20.53;;;16.33;;
2538;SDS011;1280;49.760;9.664;2022-08-19T07:29:17;26.30;;;17.67;;
2538;SDS011;1280;49.760;9.664;2022-08-19T07:31:51;21.00;;;16.60;;
2538;SDS011;1280;49.760;9.664;2022-08-19T07:34:22;21.40;;;16.30;;
2538;SDS011;1280;49.760;9.664;2022-08-19T07:36:51;22.23;;;17.10;;
2538;SDS011;1280;49.760;9.664;2022-08-19T07:39:20;25.00;;;16.97;;
2538;SDS011;1280;49.760;9.664;2022-08-19T07:41:52;23.00;;;17.50;;
2538;SDS011;1280;49.760;9.664;2022-08-19T07:44:21;21.43;;;16.30;;
2538;SDS011;1280;49.760;9.664;2022-08-19T07:46:50;22.70;;;17.60;;
2538;SDS011;1280;49.760;9.664;2022-08-19T07:49:19;18.67;;;15.60;;
2538;SDS011;1280;49.760;9.664;2022-08-19T07:51:49;21.03;;;16.10;;
2538;SDS011;1280;49.760;9.664;2022-08-19T07:54:18;23.10;;;18.23;;
2538;SDS011;1280;49.760;9.664;2022-08-19T07:56:47;22.10;;;17.00;;
2538;SDS011;1280;49.760;9.664;2022-08-19T07:59:19;23.53;;;16.97;;
2538;SDS011;1280;49.760;9.664;2022-08-19T08:01:48;18.93;;;15.80;;
2538;SDS011;1280;49.760;9.664;2022-08-19T08:04:17;20.40;;;17.03;;
2538;SDS011;1280;49.760;9.664;2022-08-19T08:07:04;19.60;;;15.60;;
2538;SDS011;1280;49.760;9.664;2022-08-19T08:09:57;22.87;;;17.70;;
2538;SDS011;1280;49.760;9.664;2022-08-19T08:12:30;17.77;;;14.57;;
2538;SDS011;1280;49.760;9.664;2022-08-19T08:15:05;21.80;;;16.03;;
2538;SDS011;1280;49.760;9.664;2022-08-19T08:17:38;21.80;;;16.60;;
2538;SDS011;1280;49.760;9.664;2022-08-19T08:20:16;21.80;;;14.83;;
2538;SDS011;1280;49.760;9.664;2022-08-19T08:22:45;20.97;;;16.70;;
2538;SDS011;1280;49.760;9.664;2022-08-19T08:25:31;18.80;;;16.33;;
2538;SDS011;1280;49.760;9.664;2022-08-19T08:28:39;20.37;;;16.07;;
2538;SDS011;1280;49.760;9.664;2022-08-19T08:30:52;21.97;;;15.27;;
2538;SDS011;1280;49.760;9.664;2022-08-19T08:33:22;19.83;;;16.37;;
2538;SDS011;1280;49.760;9.664;2022-08-19T08:36:00;22.03;;;14.63;;
2538;SDS011;1280;49.760;9.664;2022-08-19T08:38:29;19.10;;;14.40;;
2538;SDS011;1280;49.760;9.664;2022-08-19T08:41:06;15.93;;;12.30;;
2538;SDS011;1280;49.760;9.664;2022-08-19T08:43:45;16.83;;;12.53;;
2538;SDS011;1280;49.760;9.664;2022-08-19T08:46:18;15.83;;;12.07;;
2538;SDS011;1280;49.760;9.664;2022-08-19T08:48:59;14.70;;;10.80;;
2538;SDS011;1280;49.760;9.664;2022-08-19T08:51:37;15.27;;;10.93;;
2538;SDS011;1280;49.760;9.664;2022-08-19T08:54:13;16.30;;;10.50;;
2538;SDS011;1280;49.760;9.664;2022-08-19T08:56:45;16.10;;;10.87;;
2538;SDS011;1280;49.760;9.664;2022-08-19T08:59:19;15.70;;;10.00;;
2538;SDS011;1280;49.760;9.664;2022-08-19T09:01:50;14.00;;;8.90;;
2538;SDS011;1280;49.760;9.664;2022-08-19T09:04:18;11.73;;;8.80;;
2538;SDS011;1280;49.760;9.664;2022-08-19T09:06:50;13.80;;;9.73;;
2538;SDS011;1280;49.760;9.664;2022-08-19T09:10:02;10.00;;;7.93;;
2538;SDS011;1280;49.760;9.664;2022-08-19T09:12:38;13.27;;;8.90;;
2538;SDS011;1280;49.760;9.664;2022-08-19T09:15:13;13.47;;;7.80;;
2538;SDS011;1280;49.760;9.664;2022-08-19T09:17:43;14.27;;;7.70;;
2538;SDS011;1280;49.760;9.664;2022-08-19T09:20:17;11.43;;;8.13;;
2538;SDS011;1280;49.760;9.664;2022-08-19T09:22:47;9.27;;;6.60;;
2538;SDS011;1280;49.760;9.664;2022-08-19T09:25:16;12.60;;;6.93;;
2538;SDS011;1280;49.760;9.664;2022-08-19T09:27:52;9.33;;;5.30;;
2538;SDS011;1280;49.760;9.664;2022-08-19T09:30:30;9.93;;;5.37;;
2538;SDS011;1280;49.760;9.664;2022-08-19T09:33:02;10.77;;;6.00;;
2538;SDS011;1280;49.760;9.664;2022-08-19T09:35:30;7.33;;;4.43;;
2538;SDS011;1280;49.760;9.664;2022-08-19T09:38:18;9.47;;;5.13;;
2538;SDS011;1280;49.760;9.664;2022-08-19T09:40:46;8.00;;;4.20;;
2538;SDS011;1280;49.760;9.664;2022-08-19T09:43:14;6.90;;;4.50;;
2538;SDS011;1280;49.760;9.664;2022-08-19T09:45:59;7.47;;;4.63;;
2538;SDS011;1280;49.760;9.664;2022-08-19T09:48:28;6.90;;;4.00;;
2538;SDS011;1280;49.760;9.664;2022-08-19T09:51:01;7.10;;;4.23;;
2538;SDS011;1280;49.760;9.664;2022-08-19T09:53:31;7.40;;;4.40;;
2538;SDS011;1280;49.760;9.664;2022-08-19T09:55:59;8.00;;;5.27;;
2538;SDS011;1280;49.760;9.664;2022-08-19T09:58:29;12.17;;;4.93;;
2538;SDS011;1280;49.760;9.664;2022-08-19T10:00:58;8.03;;;5.27;;
2538;SDS011;1280;49.760;9.664;2022-08-19T10:03:27;7.90;;;4.80;;
2538;SDS011;1280;49.760;9.664;2022-08-19T10:05:57;6.73;;;4.33;;
2538;SDS011;1280;49.760;9.664;2022-08-19T10:08:28;8.83;;;5.90;;
2538;SDS011;1280;49.760;9.664;2022-08-19T10:10:57;7.77;;;4.80;;
2538;SDS011;1280;49.760;9.664;2022-08-19T10:13:45;7.63;;;4.80;;
2538;SDS011;1280;49.760;9.664;2022-08-19T10:16:15;7.93;;;5.27;;
2538;SDS011;1280;49.760;9.664;2022-08-19T10:18:47;7.60;;;5.47;;
2538;SDS011;1280;49.760;9.664;2022-08-19T10:21:24;8.93;;;5.70;;
2538;SDS011;1280;49.760;9.664;2022-08-19T10:23:59;8.50;;;5.60;;
2538;SDS011;1280;49.760;9.664;2022-08-19T10:26:30;7.90;;;6.00;;
2538;SDS011;1280;49.760;9.664;2022-08-19T10:28:59;8.80;;;5.70;;
2538;SDS011;1280;49.760;9.664;2022-08-19T10:31:28;8.47;;;5.27;;
2538;SDS011;1280;49.760;9.664;2022-08-19T10:34:19;13.67;;;6.40;;
2538;SDS011;1280;49.760;9.664;2022-08-19T10:36:53;8.27;;;6.30;;
2538;SDS011;1280;49.760;9.664;2022-08-19T10:39:27;8.27;;;5.90;;
2538;SDS011;1280;49.760;9.664;2022-08-19T10:41:56;9.87;;;5.60;;
2538;SDS011;1280;49.760;9.664;2022-08-19T10:44:25;8.50;;;5.57;;
2538;SDS011;1280;49.760;9.664;2022-08-19T10:46:57;10.87;;;6.00;;
2538;SDS011;1280;49.760;9.664;2022-08-19T10:49:27;10.10;;;6.60;;
2538;SDS011;1280;49.760;9.664;2022-08-19T10:51:55;9.30;;;6.30;;
2538;SDS011;1280;49.760;9.664;2022-08-19T10:54:46;9.87;;;6.50;;
2538;SDS011;1280;49.760;9.664;2022-08-19T10:57:34;9.50;;;5.87;;
2538;SDS011;1280;49.760;9.664;2022-08-19T11:00:22;9.70;;;5.60;;
2538;SDS011;1280;49.760;9.664;2022-08-19T11:02:51;10.83;;;6.30;;
2538;SDS011;1280;49.760;9.664;2022-08-19T11:05:20;8.00;;;5.87;;
2538;SDS011;1280;49.760;9.664;2022-08-19T11:07:49;7.10;;;5.20;;
2538;SDS011;1280;49.760;9.664;2022-08-19T11:10:18;9.10;;;5.07;;
2538;SDS011;1280;49.760;9.664;2022-08-19T11:12:48;8.87;;;5.20;;
2538;SDS011;1280;49.760;9.664;2022-08-19T11:15:20;8.50;;;5.97;;
2538;SDS011;1280;49.760;9.664;2022-08-19T11:17:48;7.53;;;5.10;;
2538;SDS011;1280;49.760;9.664;2022-08-19T11:20:22;8.13;;;4.80;;
2538;SDS011;1280;49.760;9.664;2022-08-19T11:22:51;9.80;;;4.80;;
2538;SDS011;1280;49.760;9.664;2022-08-19T11:25:20;8.33;;;4.83;;
2538;SDS011;1280;49.760;9.664;2022-08-19T11:27:48;7.43;;;5.00;;
2538;SDS011;1280;49.760;9.664;2022-08-19T11:30:17;6.57;;;4.50;;
2538;SDS011;1280;49.760;9.664;2022-08-19T11:32:45;8.20;;;4.93;;
2538;SDS011;1280;49.760;9.664;2022-08-19T11:35:15;7.03;;;4.47;;
2538;SDS011;1280;49.760;9.664;2022-08-19T11:37:46;6.87;;;4.33;;
2538;SDS011;1280;49.760;9.664;2022-08-19T11:40:15;7.43;;;4.33;;
2538;SDS011;1280;49.760;9.664;2022-08-19T11:42:43;6.20;;;4.30;;
2538;SDS011;1280;49.760;9.664;2022-08-19T11:45:23;9.30;;;4.50;;
2538;SDS011;1280;49.760;9.664;2022-08-19T11:47:51;6.77;;;4.67;;
2538;SDS011;1280;49.760;9.664;2022-08-19T11:50:19;6.37;;;4.37;;
2538;SDS011;1280;49.760;9.664;2022-08-19T11:52:49;6.03;;;3.50;;
2538;SDS011;1280;49.760;9.664;2022-08-19T11:55:17;7.00;;;3.67;;
2538;SDS011;1280;49.760;9.664;2022-08-19T11:57:46;6.13;;;3.90;;
2538;SDS011;1280;49.760;9.664;2022-08-19T12:00:14;8.30;;;4.03;;
2538;SDS011;1280;49.760;9.664;2022-08-19T12:02:42;7.60;;;3.53;;
2538;SDS011;1280;49.760;9.664;2022-08-19T12:05:10;7.37;;;3.80;;
2538;SDS011;1280;49.760;9.664;2022-08-19T12:07:38;6.83;;;3.87;;
2538;SDS011;1280;49.760;9.664;2022-08-19T12:10:11;6.20;;;3.47;;
2538;SDS011;1280;49.760;9.664;2022-08-19T12:12:44;9.40;;;4.60;;
2538;SDS011;1280;49.760;9.664;2022-08-19T12:15:21;6.83;;;4.17;;
2538;SDS011;1280;49.760;9.664;2022-08-19T12:17:49;6.37;;;3.77;;
2538;SDS011;1280;49.760;9.664;2022-08-19T12:20:23;6.47;;;3.87;;
2538;SDS011;1280;49.760;9.664;2022-08-19T12:22:52;7.03;;;3.53;;
2538;SDS011;1280;49.760;9.664;2022-08-19T12:25:23;5.37;;;3.23;;
2538;SDS011;1280;49.760;9.664;2022-08-19T12:27:51;6.00;;;3.63;;
2538;SDS011;1280;49.760;9.664;2022-08-19T12:30:23;9.30;;;3.13;;
2538;SDS011;1280;49.760;9.664;2022-08-19T12:32:52;6.70;;;3.70;;
2538;SDS011;1280;49.760;9.664;2022-08-19T12:35:20;6.53;;;3.43;;
2538;SDS011;1280;49.760;9.664;2022-08-19T12:37:48;5.30;;;3.20;;
2538;SDS011;1280;49.760;9.664;2022-08-19T12:40:24;9.10;;;3.87;;
2538;SDS011;1280;49.760;9.664;2022-08-19T12:42:52;5.20;;;3.20;;
2538;SDS011;1280;49.760;9.664;2022-08-19T12:45:20;6.10;;;3.73;;
2538;SDS011;1280;49.760;9.664;2022-08-19T12:47:48;6.87;;;2.97;;
2538;SDS011;1280;49.760;9.664;2022-08-19T12:50:20;5.63;;;3.50;;
2538;SDS011;1280;49.760;9.664;2022-08-19T12:52:48;5.43;;;3.23;;
2538;SDS011;1280;49.760;9.664;2022-08-19T12:55:16;5.90;;;3.30;;
2538;SDS011;1280;49.760;9.664;2022-08-19T12:57:46;5.10;;;3.03;;
2538;SDS011;1280;49.760;9.664;2022-08-19T13:00:15;5.30;;;3.40;;
2538;SDS011;1280;49.760;9.664;2022-08-19T13:02:48;5.47;;;2.87;;
2538;SDS011;1280;49.760;9.664;2022-08-19T13:05:19;6.20;;;3.53;;
2538;SDS011;1280;49.760;9.664;2022-08-19T13:07:49;6.67;;;3.43;;
2538;SDS011;1280;49.760;9.664;2022-08-19T13:10:20;7.53;;;3.37;;
2538;SDS011;1280;49.760;9.664;2022-08-19T13:12:50;6.83;;;3.20;;
2538;SDS011;1280;49.760;9.664;2022-08-19T13:15:19;7.50;;;3.30;;
2538;SDS011;1280;49.760;9.664;2022-08-19T13:17:50;5.90;;;3.63;;
2538;SDS011;1280;49.760;9.664;2022-08-19T13:20:20;6.70;;;2.80;;
2538;SDS011;1280;49.760;9.664;2022-08-19T13:22:48;5.43;;;3.00;;
2538;SDS011;1280;49.760;9.664;2022-08-19T13:25:17;6.10;;;3.20;;
2538;SDS011;1280;49.760;9.664;2022-08-19T13:27:46;6.37;;;3.20;;
2538;SDS011;1280;49.760;9.664;2022-08-19T13:30:17;5.70;;;3.43;;
2538;SDS011;1280;49.760;9.664;2022-08-19T13:33:04;6.43;;;3.30;;
2538;SDS011;1280;49.760;9.664;2022-08-19T13:35:43;6.97;;;2.80;;
2538;SDS011;1280;49.760;9.664;2022-08-19T13:38:13;5.60;;;2.87;;
2538;SDS011;1280;49.760;9.664;2022-08-19T13:40:42;5.87;;;3.00;;
2538;SDS011;1280;49.760;9.664;2022-08-19T13:43:11;5.23;;;3.00;;
2538;SDS011;1280;49.760;9.664;2022-08-19T13:45:50;5.97;;;3.40;;
2538;SDS011;1280;49.760;9.664;2022-08-19T13:48:22;5.93;;;2.80;;
2538;SDS011;1280;49.760;9.664;2022-08-19T13:50:52;5.80;;;3.03;;
2538;SDS011;1280;49.760;9.664;2022-08-19T13:53:20;5.40;;;2.63;;
2538;SDS011;1280;49.760;9.664;2022-08-19T13:55:48;6.77;;;2.90;;
2538;SDS011;1280;49.760;9.664;2022-08-19T13:58:17;6.50;;;3.27;;
2538;SDS011;1280;49.760;9.664;2022-08-19T14:00:45;6.37;;;3.60;;
2538;SDS011;1280;49.760;9.664;2022-08-19T14:03:15;7.07;;;3.20;;
2538;SDS011;1280;49.760;9.664;2022-08-19T14:05:43;7.80;;;3.10;;
2538;SDS011;1280;49.760;9.664;2022-08-19T14:08:12;5.40;;;2.90;;
2538;SDS011;1280;49.760;9.664;2022-08-19T14:10:40;6.40;;;3.50;;
2538;SDS011;1280;49.760;9.664;2022-08-19T14:15:49;7.17;;;3.77;;
2538;SDS011;1280;49.760;9.664;2022-08-19T14:18:19;5.50;;;3.03;;
2538;SDS011;1280;49.760;9.664;2022-08-19T14:20:51;5.57;;;3.20;;
2538;SDS011;1280;49.760;9.664;2022-08-19T14:23:19;8.90;;;3.60;;
2538;SDS011;1280;49.760;9.664;2022-08-19T14:25:48;5.90;;;3.20;;
2538;SDS011;1280;49.760;9.664;2022-08-19T14:28:16;6.03;;;3.33;;
2538;SDS011;1280;49.760;9.664;2022-08-19T14:30:44;5.73;;;3.10;;
2538;SDS011;1280;49.760;9.664;2022-08-19T14:33:12;5.87;;;3.57;;
2538;SDS011;1280;49.760;9.664;2022-08-19T14:35:41;5.10;;;3.10;;
2538;SDS011;1280;49.760;9.664;2022-08-19T14:38:14;6.60;;;3.37;;
2538;SDS011;1280;49.760;9.664;2022-08-19T14:40:53;7.43;;;3.87;;
2538;SDS011;1280;49.760;9.664;2022-08-19T14:43:21;6.33;;;3.30;;
2538;SDS011;1280;49.760;9.664;2022-08-19T14:45:49;7.43;;;2.90;;
2538;SDS011;1280;49.760;9.664;2022-08-19T14:48:18;7.17;;;3.13;;
2538;SDS011;1280;49.760;9.664;2022-08-19T14:50:56;5.63;;;3.40;;
2538;SDS011;1280;49.760;9.664;2022-08-19T14:53:24;5.50;;;3.10;;
2538;SDS011;1280;49.760;9.664;2022-08-19T14:55:52;5.53;;;3.43;;
2538;SDS011;1280;49.760;9.664;2022-08-19T14:58:20;7.07;;;4.27;;
2538;SDS011;1280;49.760;9.664;2022-08-19T15:00:55;6.00;;;3.00;;
2538;SDS011;1280;49.760;9.664;2022-08-19T15:03:23;5.80;;;3.40;;
2538;SDS011;1280;49.760;9.664;2022-08-19T15:05:52;6.17;;;3.80;;
2538;SDS011;1280;49.760;9.664;2022-08-19T15:08:21;5.40;;;3.37;;
2538;SDS011;1280;49.760;9.664;2022-08-19T15:10:50;4.70;;;3.07;;
2538;SDS011;1280;49.760;9.664;2022-08-19T15:13:19;6.70;;;3.90;;
2538;SDS011;1280;49.760;9.664;2022-08-19T15:15:47;7.50;;;3.53;;
2538;SDS011;1280;49.760;9.664;2022-08-19T15:18:15;5.33;;;2.90;;
2538;SDS011;1280;49.760;9.664;2022-08-19T15:20:43;7.97;;;3.50;;
2538;SDS011;1280;49.760;9.664;2022-08-19T15:23:12;5.80;;;3.20;;
2538;SDS011;1280;49.760;9.664;2022-08-19T15:25:42;5.60;;;3.37;;
2538;SDS011;1280;49.760;9.664;2022-08-19T15:28:11;5.47;;;3.10;;